createdAt,value
2019-01-11T00:01:16.603Z,2.22
2019-01-11T00:03:57.471Z,2.52
2019-01-11T00:06:26.487Z,3.12
2019-01-11T00:08:55.287Z,2.95
2019-01-11T00:11:24.103Z,4.53
2019-01-11T00:13:52.926Z,2.72
2019-01-11T00:16:21.779Z,3.70
2019-01-11T00:18:50.973Z,4.00
2019-01-11T00:21:20.059Z,3.77
2019-01-11T00:23:49.066Z,3.95
2019-01-11T00:26:17.927Z,4.53
2019-01-11T00:28:47.633Z,3.37
2019-01-11T00:31:16.403Z,3.70
2019-01-11T00:33:45.229Z,3.80
2019-01-11T00:36:14.043Z,3.20
2019-01-11T00:38:42.990Z,4.35
2019-01-11T00:41:11.907Z,3.72
2019-01-11T00:43:40.781Z,3.30
2019-01-11T00:46:09.624Z,3.80
2019-01-11T00:48:38.537Z,3.98
2019-01-11T00:51:07.403Z,3.62
2019-01-11T00:53:36.253Z,4.00
2019-01-11T00:56:05.599Z,2.80
2019-01-11T00:58:40.596Z,3.62
2019-01-11T01:01:09.544Z,3.42
2019-01-11T01:03:38.392Z,3.62
2019-01-11T01:06:07.884Z,3.50
2019-01-11T01:08:36.759Z,4.28
2019-01-11T01:11:05.874Z,3.65
2019-01-11T01:13:34.694Z,3.40
2019-01-11T01:16:04.000Z,3.60
2019-01-11T01:18:32.833Z,3.55
2019-01-11T01:21:01.872Z,4.10
2019-01-11T01:23:30.727Z,3.35
2019-01-11T01:25:59.633Z,4.83
2019-01-11T01:28:28.555Z,3.45
2019-01-11T01:30:57.365Z,3.83
2019-01-11T01:33:28.100Z,4.83
2019-01-11T01:35:56.920Z,4.12
2019-01-11T01:38:25.803Z,4.40
2019-01-11T01:40:54.702Z,4.67
2019-01-11T01:43:23.491Z,4.95
2019-01-11T01:45:52.382Z,5.10
2019-01-11T01:48:21.137Z,4.45
2019-01-11T01:50:52.732Z,5.20
2019-01-11T01:53:21.633Z,4.15
2019-01-11T01:55:50.458Z,5.05
2019-01-11T01:58:19.333Z,4.45
2019-01-11T02:00:48.379Z,4.83
2019-01-11T02:03:17.280Z,4.70
2019-01-11T02:05:46.076Z,5.53
2019-01-11T02:08:15.114Z,4.90
2019-01-11T02:10:44.174Z,5.80
2019-01-11T02:13:13.167Z,5.35
2019-01-11T02:15:42.115Z,5.60
2019-01-11T02:18:10.923Z,6.92
2019-01-11T02:20:41.092Z,4.50
2019-01-11T02:23:09.894Z,6.03
2019-01-11T02:25:38.704Z,5.35
2019-01-11T02:28:07.494Z,5.45
2019-01-11T02:30:36.382Z,7.58
2019-01-11T02:33:05.402Z,6.10
2019-01-11T02:35:34.435Z,5.97
2019-01-11T02:38:03.309Z,7.00
2019-01-11T02:40:32.233Z,6.97
2019-01-11T02:43:01.387Z,7.00
2019-01-11T02:45:30.230Z,6.45
2019-01-11T02:47:59.231Z,8.13
2019-01-11T02:50:28.234Z,6.28
2019-01-11T02:52:57.005Z,7.25
2019-01-11T02:55:26.000Z,7.65
2019-01-11T02:57:54.819Z,9.03
2019-01-11T03:00:23.769Z,8.15
2019-01-11T03:02:52.732Z,7.60
2019-01-11T03:05:21.930Z,8.03
2019-01-11T03:07:50.977Z,7.95
2019-01-11T03:10:21.642Z,8.80
2019-01-11T03:12:50.824Z,7.03
2019-01-11T03:15:20.650Z,8.55
2019-01-11T03:17:49.547Z,8.38
2019-01-11T03:20:19.119Z,9.00
2019-01-11T03:22:48.175Z,9.33
2019-01-11T03:25:17.242Z,8.53
2019-01-11T03:27:46.244Z,10.13
2019-01-11T03:30:19.841Z,9.33
2019-01-11T03:32:49.054Z,9.45
2019-01-11T03:35:19.150Z,8.98
2019-01-11T03:37:50.055Z,8.65
2019-01-11T03:40:26.350Z,8.73
2019-01-11T03:42:55.345Z,9.70
2019-01-11T03:45:27.394Z,8.90
2019-01-11T03:47:56.425Z,9.48
2019-01-11T03:50:25.702Z,10.20
2019-01-11T03:52:54.770Z,9.30
2019-01-11T03:55:23.774Z,10.00
2019-01-11T03:57:52.700Z,10.30
2019-01-11T04:00:23.313Z,11.60
2019-01-11T04:02:52.277Z,9.70
2019-01-11T04:05:24.515Z,9.98
2019-01-11T04:07:54.841Z,10.32
2019-01-11T04:10:24.380Z,10.40
2019-01-11T04:12:53.546Z,11.53
2019-01-11T04:15:23.113Z,10.68
2019-01-11T04:18:11.992Z,10.23
2019-01-11T04:20:40.956Z,10.40
2019-01-11T04:23:10.029Z,10.13
2019-01-11T04:25:41.520Z,10.20
2019-01-11T04:28:10.350Z,10.08
2019-01-11T04:30:39.245Z,9.63
2019-01-11T04:33:08.192Z,8.58
2019-01-11T04:35:37.445Z,8.95
2019-01-11T04:38:06.403Z,10.35
2019-01-11T04:40:35.311Z,9.13
2019-01-11T04:43:07.486Z,9.58
2019-01-11T04:45:36.499Z,9.48
2019-01-11T04:48:05.806Z,8.60
2019-01-11T04:50:37.138Z,11.25
2019-01-11T04:53:06.091Z,9.65
2019-01-11T04:55:35.012Z,9.20
2019-01-11T04:58:04.159Z,9.13
2019-01-11T05:00:35.429Z,9.88
2019-01-11T05:03:04.677Z,10.08
2019-01-11T05:05:33.625Z,9.55
2019-01-11T05:08:02.546Z,9.08
2019-01-11T05:10:31.837Z,10.28
2019-01-11T05:13:19.581Z,9.50
2019-01-11T05:15:48.575Z,9.58
2019-01-11T05:18:17.652Z,8.63
2019-01-11T05:20:46.647Z,8.88
2019-01-11T05:23:15.539Z,10.50
2019-01-11T05:25:44.442Z,8.80
2019-01-11T05:28:13.233Z,9.08
2019-01-11T05:30:42.259Z,9.78
2019-01-11T05:33:11.224Z,8.25
2019-01-11T05:35:40.901Z,9.98
2019-01-11T05:38:09.891Z,9.83
2019-01-11T05:40:38.952Z,9.53
2019-01-11T05:43:07.873Z,8.60
2019-01-11T05:45:36.804Z,9.38
2019-01-11T05:48:05.707Z,8.80
2019-01-11T05:50:35.907Z,9.35
2019-01-11T05:53:04.822Z,9.10
2019-01-11T05:55:49.841Z,8.98
2019-01-11T05:58:44.123Z,9.65
2019-01-11T06:01:13.924Z,9.43
2019-01-11T06:03:42.981Z,9.98
2019-01-11T06:06:11.963Z,10.20
2019-01-11T06:08:41.197Z,8.90
2019-01-11T06:11:10.267Z,10.00
2019-01-11T06:13:39.200Z,10.30
2019-01-11T06:16:08.421Z,10.38
2019-01-11T06:18:37.154Z,10.55
2019-01-11T06:21:06.005Z,10.93
2019-01-11T06:23:34.926Z,10.78
2019-01-11T06:26:03.829Z,9.58
2019-01-11T06:28:32.702Z,9.65
2019-01-11T06:31:01.712Z,11.05
2019-01-11T06:33:30.630Z,11.53
2019-01-11T06:35:59.595Z,10.10
2019-01-11T06:38:32.160Z,11.85
2019-01-11T06:41:01.127Z,10.90
2019-01-11T06:43:36.800Z,10.10
2019-01-11T06:46:14.616Z,10.48
2019-01-11T06:48:43.840Z,10.65
2019-01-11T06:51:12.851Z,9.95
2019-01-11T06:53:41.726Z,11.55
2019-01-11T06:56:23.270Z,10.50
2019-01-11T06:58:52.175Z,11.18
2019-01-11T07:01:21.299Z,10.50
2019-01-11T07:03:50.195Z,10.20
2019-01-11T07:06:18.977Z,10.05
2019-01-11T07:08:47.772Z,9.60
2019-01-11T07:11:16.589Z,8.63
2019-01-11T07:13:47.303Z,9.13
2019-01-11T07:16:20.198Z,8.78
2019-01-11T07:18:58.148Z,9.90
2019-01-11T07:21:30.750Z,7.78
2019-01-11T07:23:59.734Z,10.08
2019-01-11T07:26:28.608Z,9.20
2019-01-11T07:28:58.140Z,8.70
2019-01-11T07:31:30.802Z,8.95
2019-01-11T07:33:59.998Z,6.97
2019-01-11T07:36:30.069Z,8.73
2019-01-11T07:38:58.912Z,7.58
2019-01-11T07:41:27.893Z,8.58
2019-01-11T07:43:56.745Z,8.10
2019-01-11T07:46:26.349Z,6.90
2019-01-11T07:48:56.797Z,7.97
2019-01-11T07:51:25.584Z,7.12
2019-01-11T07:53:54.450Z,8.63
2019-01-11T07:56:26.479Z,6.92
2019-01-11T07:58:55.267Z,7.95
2019-01-11T08:01:24.250Z,7.58
2019-01-11T08:03:53.147Z,7.53
2019-01-11T08:06:22.155Z,5.92
2019-01-11T08:08:50.989Z,6.90
2019-01-11T08:11:19.845Z,8.13
2019-01-11T08:13:48.670Z,6.60
2019-01-11T08:16:17.477Z,5.67
2019-01-11T08:18:46.287Z,6.75
2019-01-11T08:21:15.345Z,5.92
2019-01-11T08:23:44.139Z,6.42
2019-01-11T08:26:13.228Z,6.00
2019-01-11T08:28:42.078Z,6.42
2019-01-11T08:31:10.996Z,7.37
2019-01-11T08:33:43.453Z,6.78
2019-01-11T08:36:12.390Z,6.90
2019-01-11T08:38:41.332Z,6.17
2019-01-11T08:41:10.158Z,5.55
2019-01-11T08:43:39.291Z,6.17
2019-01-11T08:46:08.160Z,5.78
2019-01-11T08:48:36.939Z,6.45
2019-01-11T08:51:05.919Z,4.90
2019-01-11T08:53:35.292Z,5.85
2019-01-11T08:56:08.342Z,5.75
2019-01-11T08:58:35.010Z,6.25
2019-01-11T09:01:04.178Z,5.58
2019-01-11T09:03:32.992Z,6.10
2019-01-11T09:06:01.827Z,6.17
2019-01-11T09:08:30.616Z,5.83
2019-01-11T09:10:59.396Z,6.20
2019-01-11T09:13:29.893Z,5.97
2019-01-11T09:15:58.815Z,6.25
2019-01-11T09:18:37.023Z,5.78
2019-01-11T09:21:09.348Z,6.08
2019-01-11T09:23:36.582Z,6.12
2019-01-11T09:26:05.503Z,5.90
2019-01-11T09:28:34.514Z,6.05
2019-01-11T09:31:03.451Z,6.10
2019-01-11T09:33:32.385Z,6.70
2019-01-11T09:36:01.302Z,6.92
2019-01-11T09:38:30.071Z,7.40
2019-01-11T09:40:59.098Z,5.50
2019-01-11T09:43:27.950Z,6.78
2019-01-11T09:45:58.140Z,7.03
2019-01-11T09:48:27.050Z,5.92
2019-01-11T09:50:55.955Z,6.30
2019-01-11T09:53:24.786Z,6.40
2019-01-11T09:55:53.828Z,6.30
2019-01-11T09:58:22.660Z,6.62
2019-01-11T10:00:51.441Z,5.92
2019-01-11T10:03:20.314Z,5.83
2019-01-11T10:05:49.561Z,6.50
2019-01-11T10:08:18.415Z,5.25
2019-01-11T10:10:47.419Z,6.72
2019-01-11T10:13:16.216Z,6.67
2019-01-11T10:15:45.112Z,6.10
2019-01-11T10:18:14.008Z,7.62
2019-01-11T10:20:43.046Z,7.42
2019-01-11T10:23:11.931Z,7.20
2019-01-11T10:25:40.904Z,8.58
2019-01-11T10:28:09.836Z,7.30
2019-01-11T10:30:38.779Z,7.25
2019-01-11T10:33:08.066Z,7.97
2019-01-11T10:35:37.070Z,7.60
2019-01-11T10:38:06.053Z,7.50
2019-01-11T10:40:37.083Z,7.35
2019-01-11T10:43:06.065Z,9.00
2019-01-11T10:45:36.629Z,8.28
2019-01-11T10:48:05.691Z,8.50
2019-01-11T10:50:37.315Z,7.85
2019-01-11T10:53:05.698Z,7.28
2019-01-11T10:55:34.620Z,7.87
2019-01-11T10:58:04.232Z,8.00
2019-01-11T11:00:33.139Z,7.87
2019-01-11T11:03:02.182Z,7.55
2019-01-11T11:05:31.177Z,7.40
2019-01-11T11:08:00.870Z,7.70
2019-01-11T11:10:30.603Z,4.70
2019-01-11T11:13:01.317Z,6.83
2019-01-11T11:15:31.042Z,7.45
2019-01-11T11:18:00.121Z,7.40
2019-01-11T11:20:37.336Z,7.65
2019-01-11T11:23:04.203Z,6.65
2019-01-11T11:25:36.727Z,7.00
2019-01-11T11:28:09.721Z,8.13
2019-01-11T11:30:38.504Z,6.87
2019-01-11T11:33:07.771Z,6.05
2019-01-11T11:35:36.603Z,5.72
2019-01-11T11:38:05.652Z,6.03
2019-01-11T11:40:34.770Z,5.85
2019-01-11T11:43:03.711Z,6.08
2019-01-11T11:45:32.754Z,5.85
2019-01-11T11:48:04.743Z,7.03
2019-01-11T11:50:33.939Z,6.50
2019-01-11T11:53:03.031Z,6.55
2019-01-11T11:55:31.941Z,8.08
2019-01-11T11:58:00.942Z,7.10
2019-01-11T12:00:29.970Z,6.60
2019-01-11T12:02:58.877Z,8.25
2019-01-11T12:05:27.809Z,6.78
2019-01-11T12:07:56.919Z,6.08
2019-01-11T12:10:31.440Z,6.45
2019-01-11T12:13:01.033Z,5.65
2019-01-11T12:15:35.836Z,6.70
2019-01-11T12:18:05.004Z,6.05
2019-01-11T12:20:34.541Z,6.00
2019-01-11T12:23:03.581Z,5.85
2019-01-11T12:25:32.818Z,5.28
2019-01-11T12:28:01.826Z,6.58
2019-01-11T12:30:30.892Z,5.75
2019-01-11T12:33:00.126Z,5.22
2019-01-11T12:35:28.923Z,6.33
2019-01-11T12:37:57.844Z,5.58
2019-01-11T12:40:26.797Z,5.28
2019-01-11T12:42:55.851Z,6.83
2019-01-11T12:45:24.839Z,6.05
2019-01-11T12:47:54.091Z,6.90
2019-01-11T12:50:24.938Z,6.97
2019-01-11T12:52:53.845Z,4.78
2019-01-11T12:55:23.473Z,5.90
2019-01-11T12:57:52.297Z,5.00
2019-01-11T13:00:21.325Z,5.40
2019-01-11T13:02:50.196Z,5.78
2019-01-11T13:05:27.863Z,6.22
2019-01-11T13:07:56.938Z,5.33
2019-01-11T13:10:26.062Z,5.75
2019-01-11T13:12:57.676Z,5.33
2019-01-11T13:15:26.753Z,6.92
2019-01-11T13:17:57.382Z,5.47
2019-01-11T13:20:26.660Z,6.20
2019-01-11T13:22:55.738Z,6.53
2019-01-11T13:25:24.788Z,7.00
2019-01-11T13:27:53.728Z,6.35
2019-01-11T13:30:24.615Z,6.62
2019-01-11T13:32:53.429Z,5.97
2019-01-11T13:35:29.400Z,6.15
2019-01-11T13:38:01.220Z,4.92
2019-01-11T13:40:30.633Z,6.22
2019-01-11T13:42:59.462Z,6.85
2019-01-11T13:45:28.452Z,5.40
2019-01-11T13:47:57.493Z,5.60
2019-01-11T13:50:38.615Z,5.35
2019-01-11T13:53:15.374Z,4.70
2019-01-11T13:55:44.464Z,6.15
2019-01-11T13:58:14.507Z,5.33
2019-01-11T14:00:48.125Z,5.33
2019-01-11T14:03:17.022Z,5.42
2019-01-11T14:05:45.932Z,6.53
2019-01-11T14:08:15.070Z,5.87
2019-01-11T14:10:43.946Z,4.40
2019-01-11T14:13:12.978Z,5.70
2019-01-11T14:15:41.972Z,4.62
2019-01-11T14:18:11.165Z,4.12
2019-01-11T14:20:39.983Z,4.30
2019-01-11T14:23:08.916Z,4.10
2019-01-11T14:25:37.881Z,4.67
2019-01-11T14:28:06.714Z,4.50
2019-01-11T14:30:35.723Z,4.03
2019-01-11T14:33:04.949Z,3.87
2019-01-11T14:35:33.989Z,3.80
2019-01-11T14:38:02.794Z,4.30
2019-01-11T14:40:31.871Z,4.30
2019-01-11T14:43:00.745Z,4.97
2019-01-11T14:45:29.536Z,3.90
2019-01-11T14:47:58.320Z,4.55
2019-01-11T14:50:27.259Z,4.30
2019-01-11T14:52:56.027Z,5.30
2019-01-11T14:55:24.874Z,5.03
2019-01-11T14:57:53.817Z,4.40
2019-01-11T15:00:23.791Z,4.60
2019-01-11T15:02:52.848Z,4.97
2019-01-11T15:05:22.242Z,4.35
2019-01-11T15:07:51.065Z,5.37
2019-01-11T15:10:19.939Z,4.55
2019-01-11T15:12:49.723Z,4.92
2019-01-11T15:15:18.616Z,5.58
2019-01-11T15:17:47.595Z,5.00
2019-01-11T15:20:17.889Z,5.65
2019-01-11T15:22:47.325Z,5.37
2019-01-11T15:25:16.297Z,5.03
2019-01-11T15:27:45.094Z,5.35
2019-01-11T15:30:18.925Z,6.00
2019-01-11T15:32:47.962Z,5.50
2019-01-11T15:35:16.993Z,5.30
2019-01-11T15:37:46.110Z,6.95
2019-01-11T15:40:21.245Z,4.87
2019-01-11T15:42:50.263Z,6.33
2019-01-11T15:45:19.085Z,5.58
2019-01-11T15:47:48.061Z,6.33
2019-01-11T15:50:40.947Z,5.30
2019-01-11T15:53:09.823Z,6.03
2019-01-11T15:55:38.614Z,5.35
2019-01-11T15:58:07.534Z,4.67
2019-01-11T16:00:41.940Z,5.60
2019-01-11T16:03:13.581Z,5.30
2019-01-11T16:05:42.485Z,6.60
2019-01-11T16:08:11.362Z,4.58
2019-01-11T16:11:15.691Z,5.95
2019-01-11T16:14:09.047Z,5.12
2019-01-11T16:16:50.945Z,4.87
2019-01-11T16:19:19.697Z,5.27
2019-01-11T16:21:48.578Z,4.40
2019-01-11T16:24:20.763Z,4.85
2019-01-11T16:26:49.742Z,5.20
2019-01-11T16:29:18.614Z,8.35
2019-01-11T16:31:47.768Z,5.30
2019-01-11T16:34:16.736Z,4.90
2019-01-11T16:36:45.558Z,5.97
2019-01-11T16:39:14.359Z,6.55
2019-01-11T16:41:43.232Z,6.20
2019-01-11T16:44:12.113Z,5.58
2019-01-11T16:46:41.004Z,6.20
2019-01-11T16:49:09.858Z,6.30
2019-01-11T16:51:38.626Z,6.47
2019-01-11T16:54:09.118Z,5.83
2019-01-11T16:56:37.882Z,6.67
2019-01-11T16:59:07.529Z,5.93
2019-01-11T17:01:36.460Z,6.10
2019-01-11T17:04:05.898Z,6.40
2019-01-11T17:06:34.726Z,6.25
2019-01-11T17:09:05.369Z,6.00
2019-01-11T17:11:34.143Z,6.37
2019-01-11T17:14:03.347Z,6.17
2019-01-11T17:16:32.359Z,7.27
2019-01-11T17:19:01.314Z,6.20
2019-01-11T17:21:30.464Z,6.50
2019-01-11T17:23:59.352Z,5.60
2019-01-11T17:26:31.035Z,6.10
2019-01-11T17:28:59.791Z,6.30
2019-01-11T17:31:31.250Z,6.90
2019-01-11T17:34:00.011Z,6.17
2019-01-11T17:36:30.099Z,5.80
2019-01-11T17:38:59.039Z,6.77
2019-01-11T17:41:27.963Z,5.30
2019-01-11T17:43:56.741Z,5.87
2019-01-11T17:46:25.516Z,7.10
2019-01-11T17:48:54.404Z,6.67
2019-01-11T17:51:23.385Z,6.00
2019-01-11T17:53:52.250Z,6.43
2019-01-11T17:56:21.098Z,6.30
2019-01-11T17:58:49.932Z,5.30
2019-01-11T18:01:18.746Z,6.63
2019-01-11T18:03:47.631Z,5.40
2019-01-11T18:06:16.588Z,5.57
2019-01-11T18:08:45.457Z,5.13
2019-01-11T18:11:14.249Z,5.20
2019-01-11T18:13:43.541Z,4.10
2019-01-11T18:16:12.405Z,6.10
2019-01-11T18:18:41.191Z,5.23
2019-01-11T18:21:10.584Z,5.00
2019-01-11T18:23:39.786Z,4.73
2019-01-11T18:26:08.671Z,4.20
2019-01-11T18:28:37.401Z,3.93
2019-01-11T18:31:06.257Z,2.97
2019-01-11T18:33:35.260Z,3.80
2019-01-11T18:36:04.166Z,3.50
2019-01-11T18:38:34.799Z,4.30
2019-01-11T18:41:03.689Z,3.50
2019-01-11T18:43:32.609Z,3.10
2019-01-11T18:46:01.418Z,3.17
2019-01-11T18:48:33.511Z,3.07
2019-01-11T18:51:02.320Z,2.87
2019-01-11T18:53:31.199Z,2.80
2019-01-11T18:56:05.467Z,3.43
2019-01-11T18:58:30.850Z,2.80
2019-01-11T19:00:59.800Z,4.17
2019-01-11T19:03:29.123Z,2.60
2019-01-11T19:05:58.028Z,2.87
2019-01-11T19:08:26.795Z,2.37
2019-01-11T19:10:55.580Z,2.67
2019-01-11T19:13:24.478Z,3.27
2019-01-11T19:15:53.735Z,3.47
2019-01-11T19:18:22.725Z,2.77
2019-01-11T19:20:51.599Z,4.23
2019-01-11T19:23:20.824Z,3.60
2019-01-11T19:25:49.779Z,2.70
2019-01-11T19:28:18.555Z,3.47
2019-01-11T19:30:47.315Z,3.20
2019-01-11T19:33:19.310Z,2.43
2019-01-11T19:35:48.426Z,2.70
2019-01-11T19:38:18.997Z,7.10
2019-01-11T19:40:48.006Z,3.77
2019-01-11T19:43:16.899Z,2.87
2019-01-11T19:45:45.856Z,3.50
2019-01-11T19:48:14.860Z,2.83
2019-01-11T19:50:43.912Z,2.73
2019-01-11T19:53:14.148Z,3.63
2019-01-11T19:55:43.284Z,2.63
2019-01-11T19:58:12.391Z,2.53
2019-01-11T20:00:41.426Z,3.20
2019-01-11T20:03:10.592Z,3.20
2019-01-11T20:05:39.676Z,4.70
2019-01-11T20:08:09.666Z,3.37
2019-01-11T20:10:38.836Z,2.83
2019-01-11T20:13:07.936Z,2.40
2019-01-11T20:15:39.734Z,2.63
2019-01-11T20:18:08.887Z,2.23
2019-01-11T20:20:40.563Z,2.43
2019-01-11T20:23:09.979Z,2.77
2019-01-11T20:25:39.098Z,3.90
2019-01-11T20:28:08.401Z,2.77
2019-01-11T20:30:42.641Z,2.83
2019-01-11T20:33:12.065Z,3.70
2019-01-11T20:35:41.286Z,2.93
2019-01-11T20:38:10.461Z,2.57
2019-01-11T20:40:39.690Z,2.80
2019-01-11T20:43:08.736Z,4.40
2019-01-11T20:45:37.697Z,3.70
2019-01-11T20:48:06.978Z,3.73
2019-01-11T20:50:36.005Z,3.47
2019-01-11T20:53:05.149Z,3.80
2019-01-11T20:55:34.143Z,3.43
2019-01-11T20:58:02.972Z,4.37
2019-01-11T21:00:35.105Z,2.40
2019-01-11T21:03:06.674Z,2.57
2019-01-11T21:05:35.673Z,2.77
2019-01-11T21:08:05.098Z,2.70
2019-01-11T21:10:34.119Z,2.80
2019-01-11T21:13:08.631Z,1.83
2019-01-11T21:15:37.717Z,3.30
2019-01-11T21:18:09.770Z,5.13
2019-01-11T21:20:38.568Z,3.40
2019-01-11T21:23:07.639Z,2.83
2019-01-11T21:25:36.717Z,3.43
2019-01-11T21:28:08.472Z,2.47
2019-01-11T21:30:37.318Z,4.73
2019-01-11T21:33:06.142Z,2.63
2019-01-11T21:35:35.006Z,3.17
2019-01-11T21:38:06.921Z,3.47
2019-01-11T21:40:35.721Z,3.47
2019-01-11T21:43:05.752Z,3.93
2019-01-11T21:45:34.756Z,3.53
2019-01-11T21:48:06.561Z,4.73
2019-01-11T21:50:35.808Z,3.57
2019-01-11T21:53:05.487Z,3.73
2019-01-11T21:55:34.410Z,3.40
2019-01-11T21:58:03.543Z,3.50
2019-01-11T22:00:43.450Z,2.70
2019-01-11T22:03:22.358Z,3.53
2019-01-11T22:05:51.423Z,4.60
2019-01-11T22:08:21.021Z,3.50
2019-01-11T22:10:50.116Z,4.67
2019-01-11T22:13:19.213Z,4.20
2019-01-11T22:15:48.372Z,2.93
2019-01-11T22:18:17.424Z,4.07
2019-01-11T22:20:46.304Z,5.20
2019-01-11T22:23:15.226Z,3.67
2019-01-11T22:25:44.135Z,5.63
2019-01-11T22:28:13.035Z,4.47
2019-01-11T22:30:43.261Z,3.83
2019-01-11T22:33:15.186Z,3.70
2019-01-11T22:35:44.138Z,4.47
2019-01-11T22:38:13.024Z,4.73
2019-01-11T22:40:41.902Z,4.90
2019-01-11T22:43:10.727Z,4.43
2019-01-11T22:45:39.599Z,4.63
2019-01-11T22:48:08.400Z,5.43
2019-01-11T22:50:37.205Z,3.43
2019-01-11T22:53:06.389Z,4.43
2019-01-11T22:55:35.324Z,5.10
2019-01-11T22:58:04.202Z,3.30
2019-01-11T23:00:56.963Z,5.10
2019-01-11T23:03:38.486Z,4.60
2019-01-11T23:06:31.217Z,5.27
2019-01-11T23:08:59.972Z,5.23
2019-01-11T23:11:55.603Z,4.30
2019-01-11T23:14:33.462Z,4.90
2019-01-11T23:17:13.012Z,4.23
2019-01-11T23:19:41.902Z,4.80
2019-01-11T23:22:10.925Z,4.07
2019-01-11T23:24:39.890Z,5.33
2019-01-11T23:27:09.070Z,5.57
2019-01-11T23:29:37.874Z,4.57
2019-01-11T23:32:06.699Z,4.70
2019-01-11T23:34:35.732Z,3.90
2019-01-11T23:37:04.758Z,4.43
2019-01-11T23:39:33.621Z,4.90
2019-01-11T23:42:02.511Z,4.10
2019-01-11T23:44:34.381Z,4.60
2019-01-11T23:47:03.412Z,5.30
2019-01-11T23:49:32.879Z,4.73
2019-01-11T23:52:01.654Z,5.70
2019-01-11T23:54:30.678Z,6.03
2019-01-11T23:56:59.573Z,6.20
2019-01-11T23:59:28.366Z,4.03
